createdAt,value
2023-08-08T00:01:48.183Z,89.83
2023-08-08T00:04:18.299Z,89.82
2023-08-08T00:06:50.060Z,89.80
2023-08-08T00:09:21.591Z,89.96
2023-08-08T00:11:53.173Z,89.96
2023-08-08T00:14:23.272Z,89.93
2023-08-08T00:16:54.890Z,89.77
2023-08-08T00:19:26.594Z,89.65
2023-08-08T00:21:58.308Z,89.31
2023-08-08T00:24:30.235Z,89.55
2023-08-08T00:27:01.863Z,89.67
2023-08-08T00:29:33.439Z,89.62
2023-08-08T00:32:05.647Z,89.63
2023-08-08T00:34:37.875Z,89.75
2023-08-08T00:37:09.662Z,89.83
2023-08-08T00:39:43.742Z,89.80
2023-08-08T00:42:16.999Z,89.78
2023-08-08T00:44:48.531Z,89.74
2023-08-08T00:47:18.646Z,89.81
2023-08-08T00:49:50.947Z,89.60
2023-08-08T00:52:22.933Z,89.56
2023-08-08T00:54:55.431Z,89.58
2023-08-08T00:57:27.838Z,89.65
2023-08-08T00:59:59.679Z,89.65
2023-08-08T01:02:31.508Z,89.52
2023-08-08T01:05:05.687Z,89.34
2023-08-08T01:07:45.945Z,89.27
2023-08-08T01:10:22.556Z,89.27
2023-08-08T01:13:00.287Z,89.30
2023-08-08T01:15:36.812Z,89.37
2023-08-08T01:18:12.000Z,89.40
2023-08-08T01:20:45.269Z,89.26
2023-08-08T01:23:21.408Z,89.21
2023-08-08T01:25:54.006Z,89.17
2023-08-08T01:28:26.354Z,89.12
2023-08-08T01:30:58.041Z,89.12
2023-08-08T01:33:30.034Z,89.11
2023-08-08T01:36:04.895Z,89.02
2023-08-08T01:38:41.879Z,89.14
2023-08-08T01:41:14.500Z,89.20
2023-08-08T01:43:48.569Z,89.07
2023-08-08T01:46:21.031Z,89.07
2023-08-08T01:48:52.628Z,89.04
2023-08-08T01:51:25.317Z,89.15
2023-08-08T01:53:56.985Z,89.26
2023-08-08T01:56:28.538Z,89.04
2023-08-08T01:58:58.775Z,89.09
2023-08-08T02:01:30.658Z,89.17
2023-08-08T02:04:02.371Z,89.20
2023-08-08T02:06:33.958Z,89.21
2023-08-08T02:09:04.220Z,89.27
2023-08-08T02:11:35.767Z,89.27
2023-08-08T02:14:05.860Z,89.31
2023-08-08T02:16:38.157Z,89.31
2023-08-08T02:19:10.006Z,89.50
2023-08-08T02:21:41.708Z,89.46
2023-08-08T02:24:11.820Z,89.24
2023-08-08T02:26:43.378Z,89.21
2023-08-08T02:29:13.482Z,89.19
2023-08-08T02:31:45.176Z,89.18
2023-08-08T02:34:16.834Z,89.16
2023-08-08T02:36:48.331Z,89.25
2023-08-08T02:39:18.956Z,89.28
2023-08-08T02:41:50.480Z,89.22
2023-08-08T02:44:23.571Z,89.18
2023-08-08T02:46:55.106Z,89.26
2023-08-08T02:49:25.372Z,89.24
2023-08-08T02:51:57.621Z,89.26
2023-08-08T02:54:32.014Z,89.31
2023-08-08T02:57:04.187Z,89.57
2023-08-08T02:59:35.776Z,89.56
2023-08-08T03:02:09.823Z,89.62
2023-08-08T03:04:43.060Z,89.72
2023-08-08T03:07:14.829Z,89.72
2023-08-08T03:09:46.429Z,89.72
2023-08-08T03:12:18.594Z,89.50
2023-08-08T03:14:50.416Z,89.60
2023-08-08T03:17:22.172Z,89.86
2023-08-08T03:19:55.056Z,89.75
2023-08-08T03:22:28.351Z,89.69
2023-08-08T03:25:00.459Z,89.90
2023-08-08T03:27:32.298Z,89.88
2023-08-08T03:30:05.439Z,89.87
2023-08-08T03:32:42.258Z,89.76
2023-08-08T03:35:16.035Z,89.84
2023-08-08T03:37:48.055Z,89.77
2023-08-08T03:40:20.381Z,89.38
2023-08-08T03:42:52.176Z,89.57
2023-08-08T03:45:24.127Z,89.64
2023-08-08T03:47:55.734Z,89.68
2023-08-08T03:50:27.631Z,89.45
2023-08-08T03:52:59.206Z,89.40
2023-08-08T03:55:30.758Z,89.23
2023-08-08T03:58:02.527Z,89.34
2023-08-08T04:00:32.624Z,89.32
2023-08-08T04:03:04.510Z,89.29
2023-08-08T04:05:36.125Z,89.22
2023-08-08T04:08:06.883Z,89.10
2023-08-08T04:10:38.502Z,89.13
2023-08-08T04:13:08.648Z,89.03
2023-08-08T04:15:41.265Z,89.06
2023-08-08T04:18:13.124Z,88.97
2023-08-08T04:20:45.333Z,89.24
2023-08-08T04:23:16.955Z,89.45
2023-08-08T04:25:48.780Z,89.50
2023-08-08T04:28:20.509Z,89.52
2023-08-08T04:30:52.132Z,89.89
2023-08-08T04:33:23.903Z,89.67
2023-08-08T04:35:55.432Z,89.50
2023-08-08T04:38:27.230Z,89.34
2023-08-08T04:40:58.807Z,89.16
2023-08-08T04:43:30.373Z,89.64
2023-08-08T04:46:00.455Z,89.25
2023-08-08T04:48:32.012Z,89.15
2023-08-08T04:51:02.086Z,88.96
2023-08-08T04:53:33.590Z,88.86
2023-08-08T04:56:03.736Z,89.02
2023-08-08T04:58:35.326Z,88.65
2023-08-08T05:01:05.481Z,88.63
2023-08-08T05:03:37.834Z,88.50
2023-08-08T05:06:09.482Z,88.14
2023-08-08T05:08:41.018Z,87.91
2023-08-08T05:11:11.464Z,87.65
2023-08-08T05:13:43.925Z,87.12
2023-08-08T05:16:15.543Z,85.86
2023-08-08T05:18:47.114Z,85.87
2023-08-08T05:21:18.597Z,85.23
2023-08-08T05:23:50.142Z,84.78
2023-08-08T05:26:20.229Z,84.35
2023-08-08T05:28:51.899Z,84.01
2023-08-08T05:31:23.460Z,82.71
2023-08-08T05:33:55.022Z,81.73
2023-08-08T05:36:26.651Z,82.00
2023-08-08T05:38:58.134Z,81.19
2023-08-08T05:41:28.217Z,80.72
2023-08-08T05:43:59.792Z,81.43
2023-08-08T05:46:29.892Z,80.42
2023-08-08T05:49:02.459Z,80.69
2023-08-08T05:51:34.412Z,79.40
2023-08-08T05:54:06.227Z,78.39
2023-08-08T05:56:41.112Z,78.12
2023-08-08T05:59:12.676Z,78.53
2023-08-08T06:01:45.479Z,77.77
2023-08-08T06:04:17.237Z,77.69
2023-08-08T06:06:50.287Z,77.31
2023-08-08T06:09:23.467Z,77.47
2023-08-08T06:11:55.039Z,75.52
2023-08-08T06:14:26.673Z,75.50
2023-08-08T06:16:58.251Z,76.20
2023-08-08T06:19:29.779Z,75.29
2023-08-08T06:22:01.580Z,76.20
2023-08-08T06:24:33.758Z,75.70
2023-08-08T06:27:05.968Z,75.52
2023-08-08T06:29:37.540Z,75.03
2023-08-08T06:32:09.958Z,75.81
2023-08-08T06:34:41.552Z,74.47
2023-08-08T06:37:13.230Z,73.30
2023-08-08T06:39:45.028Z,70.17
2023-08-08T06:42:16.728Z,72.12
2023-08-08T06:44:56.148Z,72.82
2023-08-08T06:47:27.783Z,72.67
2023-08-08T06:49:59.421Z,72.42
2023-08-08T06:52:31.176Z,70.36
2023-08-08T06:55:03.050Z,69.90
2023-08-08T06:57:36.695Z,70.12
2023-08-08T07:00:11.473Z,68.54
2023-08-08T07:02:43.388Z,70.22
2023-08-08T07:05:15.068Z,70.99
2023-08-08T07:07:47.240Z,70.96
2023-08-08T07:10:19.086Z,70.74
2023-08-08T07:12:50.889Z,70.24
2023-08-08T07:15:23.367Z,70.23
2023-08-08T07:17:55.049Z,70.92
2023-08-08T07:20:26.789Z,70.88
2023-08-08T07:22:58.652Z,71.71
2023-08-08T07:25:30.370Z,71.85
2023-08-08T07:28:01.957Z,71.84
2023-08-08T07:30:33.556Z,70.24
2023-08-08T07:33:05.457Z,69.88
2023-08-08T07:35:38.151Z,69.44
2023-08-08T07:38:09.702Z,70.12
2023-08-08T07:40:42.139Z,68.62
2023-08-08T07:43:14.095Z,69.43
2023-08-08T07:45:46.079Z,69.44
2023-08-08T07:48:17.793Z,69.41
2023-08-08T07:50:49.322Z,70.02
2023-08-08T07:53:20.975Z,66.45
2023-08-08T07:55:52.651Z,66.47
2023-08-08T07:58:27.239Z,66.89
2023-08-08T08:01:03.258Z,69.03
2023-08-08T08:03:35.231Z,69.13
2023-08-08T08:06:07.346Z,68.50
2023-08-08T08:08:38.990Z,69.09
2023-08-08T08:11:10.985Z,69.52
2023-08-08T08:13:42.745Z,70.17
2023-08-08T08:16:14.475Z,69.71
2023-08-08T08:18:46.238Z,68.21
2023-08-08T08:21:18.861Z,68.88
2023-08-08T08:23:50.707Z,69.65
2023-08-08T08:26:22.352Z,70.11
2023-08-08T08:28:53.820Z,69.50
2023-08-08T08:31:25.365Z,69.07
2023-08-08T08:33:58.537Z,69.65
2023-08-08T08:36:30.281Z,68.70
2023-08-08T08:39:01.849Z,69.53
2023-08-08T08:41:37.492Z,69.54
2023-08-08T08:44:10.012Z,69.67
2023-08-08T08:46:42.192Z,66.95
2023-08-08T08:49:14.668Z,69.93
2023-08-08T08:51:46.466Z,70.50
2023-08-08T08:54:19.749Z,68.14
2023-08-08T08:56:52.523Z,69.73
2023-08-08T08:59:24.500Z,69.45
2023-08-08T09:01:57.572Z,70.13
2023-08-08T09:04:30.691Z,71.26
2023-08-08T09:07:02.984Z,72.03
2023-08-08T09:09:37.468Z,72.82
2023-08-08T09:12:10.581Z,73.74
2023-08-08T09:14:44.377Z,75.49
2023-08-08T09:17:16.536Z,77.03
2023-08-08T09:19:48.689Z,76.90
2023-08-08T09:22:21.334Z,76.51
2023-08-08T09:24:52.897Z,75.57
2023-08-08T09:27:24.633Z,76.25
2023-08-08T09:29:56.317Z,76.38
2023-08-08T09:32:32.213Z,77.24
2023-08-08T09:35:04.463Z,76.78
2023-08-08T09:37:36.215Z,76.46
2023-08-08T09:40:12.384Z,74.28
2023-08-08T09:42:44.587Z,74.83
2023-08-08T09:45:16.135Z,73.91
2023-08-08T09:47:47.830Z,72.43
2023-08-08T09:50:20.314Z,72.56
2023-08-08T09:52:54.262Z,71.98
2023-08-08T09:55:26.220Z,72.51
2023-08-08T09:57:59.185Z,71.86
2023-08-08T10:00:32.067Z,71.44
2023-08-08T10:03:05.338Z,69.79
2023-08-08T10:05:38.417Z,69.72
2023-08-08T10:08:10.482Z,69.89
2023-08-08T10:10:43.786Z,69.89
2023-08-08T10:13:23.145Z,68.48
2023-08-08T10:15:55.446Z,68.32
2023-08-08T10:18:29.432Z,65.92
2023-08-08T10:21:01.219Z,63.73
2023-08-08T10:23:39.549Z,64.28
2023-08-08T10:26:22.173Z,65.61
2023-08-08T10:29:00.283Z,66.35
2023-08-08T10:31:37.584Z,66.47
2023-08-08T10:34:10.930Z,67.01
2023-08-08T10:36:53.741Z,67.94
2023-08-08T10:39:26.886Z,66.49
2023-08-08T10:42:02.870Z,65.93
2023-08-08T10:44:43.203Z,66.47
2023-08-08T10:47:15.197Z,66.50
2023-08-08T10:49:47.048Z,64.65
2023-08-08T10:52:18.820Z,63.37
2023-08-08T10:54:56.537Z,63.36
2023-08-08T10:57:30.778Z,63.10
2023-08-08T11:00:25.671Z,62.97
2023-08-08T11:02:57.651Z,62.96
2023-08-08T11:05:31.868Z,62.12
2023-08-08T11:08:05.046Z,60.94
2023-08-08T11:10:40.802Z,62.65
2023-08-08T11:13:12.459Z,61.43
2023-08-08T11:15:45.482Z,62.05
2023-08-08T11:18:17.306Z,62.33
2023-08-08T11:20:50.330Z,60.25
2023-08-08T11:23:22.191Z,60.76
2023-08-08T11:28:28.333Z,61.89
2023-08-08T11:31:00.338Z,61.61
2023-08-08T11:33:33.276Z,62.53
2023-08-08T11:36:07.857Z,63.35
2023-08-08T11:38:41.997Z,63.62
2023-08-08T11:41:15.041Z,63.11
2023-08-08T11:43:47.301Z,63.30
2023-08-08T11:46:19.938Z,61.08
2023-08-08T11:48:51.629Z,62.56
2023-08-08T11:51:24.083Z,63.37
2023-08-08T11:53:56.757Z,64.65
2023-08-08T11:56:29.641Z,62.95
2023-08-08T11:59:01.807Z,58.92
2023-08-08T12:01:35.412Z,60.31
2023-08-08T12:04:11.149Z,60.67
2023-08-08T12:06:45.397Z,60.48
2023-08-08T12:09:17.374Z,57.98
2023-08-08T12:11:49.796Z,57.41
2023-08-08T12:14:22.066Z,58.77
2023-08-08T12:16:55.915Z,58.68
2023-08-08T12:19:30.012Z,57.48
2023-08-08T12:22:02.148Z,55.65
2023-08-08T12:24:34.257Z,56.50
2023-08-08T12:27:06.636Z,57.36
2023-08-08T12:29:38.271Z,56.50
2023-08-08T12:32:09.972Z,54.94
2023-08-08T12:34:41.615Z,55.57
2023-08-08T12:37:13.252Z,55.13
2023-08-08T12:39:45.701Z,55.06
2023-08-08T12:42:17.927Z,57.21
2023-08-08T12:44:52.272Z,58.63
2023-08-08T12:47:23.911Z,59.31
2023-08-08T12:49:55.530Z,58.96
2023-08-08T12:52:27.452Z,57.72
2023-08-08T12:54:59.033Z,56.67
2023-08-08T12:57:30.933Z,56.14
2023-08-08T13:00:02.762Z,56.65
2023-08-08T13:02:35.014Z,58.02
2023-08-08T13:05:08.149Z,57.25
2023-08-08T13:07:40.122Z,56.91
2023-08-08T13:10:12.714Z,59.91
2023-08-08T13:12:44.264Z,59.78
2023-08-08T13:15:15.999Z,57.76
2023-08-08T13:17:47.920Z,58.40
2023-08-08T13:20:19.710Z,60.13
2023-08-08T13:22:51.371Z,60.69
2023-08-08T13:25:22.973Z,61.22
2023-08-08T13:27:54.559Z,61.26
2023-08-08T13:30:26.271Z,60.13
2023-08-08T13:33:00.462Z,59.90
2023-08-08T13:35:32.470Z,59.30
2023-08-08T13:38:04.185Z,58.51
2023-08-08T13:40:36.205Z,59.64
2023-08-08T13:43:07.885Z,60.60
2023-08-08T13:45:40.460Z,59.82
2023-08-08T13:48:12.373Z,60.46
2023-08-08T13:50:44.028Z,59.51
2023-08-08T13:53:15.595Z,57.77
2023-08-08T13:55:47.223Z,58.77
2023-08-08T13:58:18.869Z,57.13
2023-08-08T14:00:50.516Z,57.11
2023-08-08T14:03:23.422Z,57.00
2023-08-08T14:05:55.212Z,56.90
2023-08-08T14:08:26.927Z,55.94
2023-08-08T14:10:58.674Z,56.18
2023-08-08T14:13:30.344Z,56.70
2023-08-08T14:16:02.091Z,58.02
2023-08-08T14:18:33.927Z,59.28
2023-08-08T14:21:05.842Z,58.67
2023-08-08T14:23:37.621Z,57.70
2023-08-08T14:26:09.272Z,58.63
2023-08-08T14:28:40.941Z,60.64
2023-08-08T14:31:12.657Z,60.60
2023-08-08T14:33:44.366Z,59.12
2023-08-08T14:36:16.046Z,60.05
2023-08-08T14:38:47.714Z,58.95
2023-08-08T14:41:19.291Z,57.93
2023-08-08T14:43:50.898Z,57.76
2023-08-08T14:46:22.462Z,57.69
2023-08-08T14:48:54.198Z,56.21
2023-08-08T14:51:26.616Z,56.20
2023-08-08T14:53:58.354Z,56.91
2023-08-08T14:56:30.442Z,56.97
2023-08-08T14:59:02.036Z,56.34
2023-08-08T15:01:34.362Z,56.75
2023-08-08T15:04:07.144Z,57.10
2023-08-08T15:06:39.991Z,57.56
2023-08-08T15:09:12.281Z,58.61
2023-08-08T15:11:44.142Z,58.89
2023-08-08T15:14:15.673Z,59.04
2023-08-08T15:16:53.304Z,59.14
2023-08-08T15:19:25.073Z,59.41
2023-08-08T15:21:57.392Z,58.85
2023-08-08T15:24:29.449Z,59.11
2023-08-08T15:27:01.372Z,59.17
2023-08-08T15:29:33.318Z,58.70
2023-08-08T15:32:05.129Z,60.49
2023-08-08T15:34:37.411Z,61.10
2023-08-08T15:37:10.108Z,60.56
2023-08-08T15:39:41.692Z,62.38
2023-08-08T15:42:13.248Z,61.38
2023-08-08T15:44:45.099Z,59.92
2023-08-08T15:47:16.719Z,61.50
2023-08-08T15:49:49.070Z,60.82
2023-08-08T15:52:21.057Z,62.87
2023-08-08T15:54:53.334Z,61.06
2023-08-08T15:57:25.056Z,63.36
2023-08-08T15:59:56.678Z,63.69
2023-08-08T16:02:28.959Z,63.21
2023-08-08T16:05:01.360Z,64.16
2023-08-08T16:07:33.001Z,63.56
2023-08-08T16:10:05.049Z,64.43
2023-08-08T16:12:37.172Z,63.36
2023-08-08T16:15:10.752Z,64.41
2023-08-08T16:17:42.409Z,65.04
2023-08-08T16:20:16.851Z,66.42
2023-08-08T16:22:50.161Z,66.16
2023-08-08T16:25:22.086Z,66.78
2023-08-08T16:27:53.695Z,66.89
2023-08-08T16:30:25.776Z,66.11
2023-08-08T16:32:57.441Z,66.15
2023-08-08T16:35:29.860Z,65.70
2023-08-08T16:38:01.563Z,64.81
2023-08-08T16:40:33.202Z,64.71
2023-08-08T16:43:05.126Z,64.91
2023-08-08T16:45:36.761Z,65.25
2023-08-08T16:48:09.380Z,65.24
2023-08-08T16:50:41.825Z,64.92
2023-08-08T16:53:13.607Z,64.95
2023-08-08T16:55:45.356Z,66.67
2023-08-08T16:58:17.196Z,65.96
2023-08-08T17:00:49.133Z,65.34
2023-08-08T17:03:21.030Z,65.71
2023-08-08T17:05:53.367Z,67.00
2023-08-08T17:08:25.065Z,67.96
2023-08-08T17:10:56.656Z,67.37
2023-08-08T17:13:31.001Z,67.56
2023-08-08T17:16:03.223Z,67.62
2023-08-08T17:18:35.268Z,67.07
2023-08-08T17:21:06.920Z,67.50
2023-08-08T17:23:38.696Z,67.67
2023-08-08T17:26:10.488Z,67.47
2023-08-08T17:28:42.340Z,67.21
2023-08-08T17:31:14.112Z,67.75
2023-08-08T17:33:45.889Z,68.25
2023-08-08T17:36:17.534Z,69.03
2023-08-08T17:38:49.100Z,68.57
2023-08-08T17:41:20.828Z,68.95
2023-08-08T17:43:52.371Z,69.73
2023-08-08T17:46:24.052Z,69.90
2023-08-08T17:48:55.763Z,70.31
2023-08-08T17:51:27.427Z,70.51
2023-08-08T17:53:59.070Z,71.03
2023-08-08T17:56:30.808Z,71.00
2023-08-08T17:59:02.316Z,72.04
2023-08-08T18:01:33.944Z,72.55
2023-08-08T18:04:06.413Z,72.61
2023-08-08T18:06:39.432Z,72.75
2023-08-08T18:09:11.408Z,73.07
2023-08-08T18:11:42.940Z,73.45
2023-08-08T18:14:14.978Z,73.58
2023-08-08T18:16:46.861Z,73.73
2023-08-08T18:19:22.247Z,73.75
2023-08-08T18:21:53.820Z,73.91
2023-08-08T18:24:27.138Z,74.01
2023-08-08T18:27:01.446Z,74.29
2023-08-08T18:29:34.977Z,74.68
2023-08-08T18:32:08.249Z,74.72
2023-08-08T18:34:40.022Z,75.02
2023-08-08T18:37:11.970Z,75.10
2023-08-08T18:39:43.672Z,75.44
2023-08-08T18:42:15.417Z,75.38
2023-08-08T18:44:49.356Z,75.51
2023-08-08T18:47:22.717Z,75.50
2023-08-08T18:49:54.725Z,76.01
2023-08-08T18:52:27.330Z,75.68
2023-08-08T18:54:58.982Z,75.99
2023-08-08T18:57:30.701Z,76.09
2023-08-08T19:00:04.178Z,76.12
2023-08-08T19:02:38.675Z,76.34
2023-08-08T19:05:13.380Z,76.32
2023-08-08T19:07:48.772Z,76.21
2023-08-08T19:10:20.545Z,76.30
2023-08-08T19:12:55.114Z,76.68
2023-08-08T19:15:32.473Z,76.65
2023-08-08T19:18:07.424Z,76.79
2023-08-08T19:20:39.567Z,77.04
2023-08-08T19:23:11.371Z,77.19
2023-08-08T19:25:45.222Z,77.61
2023-08-08T19:28:20.199Z,77.65
2023-08-08T19:30:53.833Z,77.59
2023-08-08T19:33:25.733Z,77.92
2023-08-08T19:35:59.324Z,78.10
2023-08-08T19:38:31.631Z,78.49
2023-08-08T19:41:04.489Z,78.72
2023-08-08T19:43:41.771Z,78.45
2023-08-08T19:46:15.486Z,78.47
2023-08-08T19:48:49.842Z,78.96
2023-08-08T19:51:21.791Z,78.96
2023-08-08T19:53:53.730Z,78.69
2023-08-08T19:56:28.207Z,78.99
2023-08-08T19:59:00.126Z,78.70
2023-08-08T20:01:31.929Z,78.66
2023-08-08T20:04:07.206Z,80.40
2023-08-08T20:06:38.869Z,79.13
2023-08-08T20:09:10.587Z,78.61
2023-08-08T20:11:42.624Z,78.19
2023-08-08T20:14:14.349Z,78.73
2023-08-08T20:16:46.010Z,78.29
2023-08-08T20:19:18.318Z,77.98
2023-08-08T20:21:50.522Z,78.10
2023-08-08T20:24:22.705Z,78.39
2023-08-08T20:26:54.498Z,79.29
2023-08-08T20:29:26.293Z,79.64
2023-08-08T20:31:58.017Z,80.51
2023-08-08T20:34:31.759Z,79.30
2023-08-08T20:37:04.997Z,79.03
2023-08-08T20:39:36.768Z,79.72
2023-08-08T20:42:08.929Z,80.06
2023-08-08T20:44:40.501Z,80.19
2023-08-08T20:47:12.183Z,80.93
2023-08-08T20:49:43.985Z,81.56
2023-08-08T20:52:15.661Z,81.20
2023-08-08T20:54:47.721Z,81.13
2023-08-08T20:57:19.558Z,81.35
2023-08-08T20:59:51.525Z,81.39
2023-08-08T21:02:23.530Z,80.93
2023-08-08T21:04:55.329Z,81.45
2023-08-08T21:07:27.515Z,81.47
2023-08-08T21:09:59.197Z,81.17
2023-08-08T21:12:31.008Z,81.40
2023-08-08T21:15:02.638Z,80.92
2023-08-08T21:17:34.250Z,81.15
2023-08-08T21:20:07.835Z,81.54
2023-08-08T21:22:39.472Z,81.62
2023-08-08T21:25:12.013Z,81.54
2023-08-08T21:27:43.740Z,81.50
2023-08-08T21:30:15.466Z,81.77
2023-08-08T21:32:47.126Z,82.03
2023-08-08T21:35:19.210Z,82.07
2023-08-08T21:37:51.055Z,82.04
2023-08-08T21:40:23.090Z,82.21
2023-08-08T21:42:55.422Z,82.31
2023-08-08T21:45:27.638Z,82.16
2023-08-08T21:48:00.417Z,81.88
2023-08-08T21:50:32.438Z,81.33
2023-08-08T21:53:04.938Z,81.55
2023-08-08T21:55:36.602Z,81.44
2023-08-08T21:58:08.381Z,81.74
2023-08-08T22:00:40.802Z,81.73
2023-08-08T22:03:13.070Z,81.59
2023-08-08T22:05:45.262Z,81.76
2023-08-08T22:08:17.053Z,81.98
2023-08-08T22:10:49.082Z,81.81
2023-08-08T22:13:21.943Z,82.04
2023-08-08T22:15:54.229Z,82.23
2023-08-08T22:18:26.097Z,82.67
2023-08-08T22:20:58.090Z,82.91
2023-08-08T22:23:29.730Z,82.30
2023-08-08T22:26:01.265Z,82.66
2023-08-08T22:28:31.404Z,82.25
2023-08-08T22:31:03.183Z,81.75
2023-08-08T22:33:35.160Z,82.24
2023-08-08T22:36:08.003Z,81.89
2023-08-08T22:38:41.183Z,81.83
2023-08-08T22:41:12.841Z,81.57
2023-08-08T22:43:45.815Z,81.69
2023-08-08T22:46:17.660Z,81.29
2023-08-08T22:48:49.505Z,81.23
2023-08-08T22:51:21.239Z,81.69
2023-08-08T22:53:53.053Z,81.08
2023-08-08T22:56:24.878Z,81.22
2023-08-08T22:58:56.494Z,81.22
2023-08-08T23:01:28.105Z,81.84
2023-08-08T23:03:59.759Z,81.87
2023-08-08T23:06:31.773Z,81.84
2023-08-08T23:09:03.435Z,82.06
2023-08-08T23:11:35.003Z,82.27
2023-08-08T23:14:05.448Z,82.31
2023-08-08T23:16:37.160Z,81.74
2023-08-08T23:19:08.966Z,82.16
2023-08-08T23:21:40.630Z,82.67
2023-08-08T23:24:13.015Z,82.49
2023-08-08T23:26:45.301Z,82.39
2023-08-08T23:29:16.887Z,82.67
2023-08-08T23:31:49.773Z,82.66
2023-08-08T23:34:21.707Z,82.51
2023-08-08T23:36:53.380Z,81.95
2023-08-08T23:39:25.123Z,81.86
2023-08-08T23:41:56.696Z,82.02
2023-08-08T23:44:28.315Z,82.11
2023-08-08T23:47:00.363Z,82.17
2023-08-08T23:49:32.655Z,82.12
2023-08-08T23:52:04.709Z,81.87
2023-08-08T23:54:36.674Z,81.78
2023-08-08T23:57:08.746Z,81.74
2023-08-08T23:59:40.350Z,81.64
